createdAt,value
2018-12-21T00:00:20.566Z,0.00
2018-12-21T00:01:20.537Z,0.00
2018-12-21T00:02:20.512Z,0.00
2018-12-21T00:03:20.489Z,0.00
2018-12-21T00:04:20.467Z,0.00
2018-12-21T00:05:20.442Z,0.00
2018-12-21T00:06:20.420Z,0.00
2018-12-21T00:07:20.396Z,0.00
2018-12-21T00:08:20.375Z,0.00
2018-12-21T00:09:20.353Z,0.00
2018-12-21T00:10:20.329Z,0.00
2018-12-21T00:11:20.306Z,0.00
2018-12-21T00:12:20.282Z,0.00
2018-12-21T00:13:20.259Z,0.00
2018-12-21T00:14:20.235Z,0.00
2018-12-21T00:15:20.217Z,0.00
2018-12-21T00:16:20.188Z,0.00
2018-12-21T00:17:20.167Z,0.00
2018-12-21T00:18:20.141Z,0.00
2018-12-21T00:19:20.121Z,0.00
2018-12-21T00:20:20.115Z,0.00
2018-12-21T00:21:21.965Z,0.00
2018-12-21T00:22:20.052Z,0.00
2018-12-21T00:23:20.044Z,0.00
2018-12-21T00:24:20.004Z,0.00
2018-12-21T00:25:19.983Z,0.00
2018-12-21T00:26:19.955Z,0.00
2018-12-21T00:27:19.949Z,0.00
2018-12-21T00:28:19.910Z,0.00
2018-12-21T00:29:19.885Z,0.00
2018-12-21T00:30:19.862Z,0.00
2018-12-21T00:31:19.840Z,0.00
2018-12-21T00:32:19.816Z,0.00
2018-12-21T00:33:19.794Z,0.00
2018-12-21T00:34:19.769Z,0.00
2018-12-21T00:35:19.744Z,0.00
2018-12-21T00:36:19.724Z,0.00
2018-12-21T00:37:19.704Z,0.00
2018-12-21T00:38:19.692Z,0.00
2018-12-21T00:39:19.656Z,0.00
2018-12-21T00:40:19.632Z,0.00
2018-12-21T00:41:19.609Z,0.00
2018-12-21T00:42:19.585Z,0.00
2018-12-21T00:43:19.561Z,0.00
2018-12-21T00:44:19.537Z,0.00
2018-12-21T00:45:19.512Z,0.00
2018-12-21T00:46:19.490Z,0.00
2018-12-21T00:47:19.468Z,0.00
2018-12-21T00:48:19.444Z,0.00
2018-12-21T00:49:19.419Z,0.00
2018-12-21T00:50:19.396Z,0.00
2018-12-21T00:51:19.375Z,0.00
2018-12-21T00:52:19.361Z,0.00
2018-12-21T00:53:19.328Z,0.00
2018-12-21T00:54:19.307Z,0.00
2018-12-21T00:55:19.288Z,0.00
2018-12-21T00:56:19.259Z,0.00
2018-12-21T00:57:19.302Z,0.00
2018-12-21T00:58:19.212Z,0.00
2018-12-21T00:59:19.187Z,0.00
2018-12-21T01:00:19.166Z,0.00
2018-12-21T01:01:19.141Z,0.00
2018-12-21T01:02:19.122Z,0.00
2018-12-21T01:03:19.095Z,0.00
2018-12-21T01:04:19.073Z,0.00
2018-12-21T01:05:19.047Z,0.00
2018-12-21T01:06:19.025Z,0.00
2018-12-21T01:07:19.010Z,0.00
2018-12-21T01:08:18.980Z,0.00
2018-12-21T01:09:18.963Z,0.00
2018-12-21T01:10:18.934Z,0.00
2018-12-21T01:11:18.909Z,0.00
2018-12-21T01:12:18.885Z,0.00
2018-12-21T01:13:18.870Z,0.00
2018-12-21T01:14:18.842Z,0.00
2018-12-21T01:15:18.817Z,0.00
2018-12-21T01:16:18.793Z,0.00
2018-12-21T01:17:18.777Z,0.00
2018-12-21T01:18:18.757Z,0.00
2018-12-21T01:19:18.731Z,0.00
2018-12-21T01:20:18.701Z,0.00
2018-12-21T01:21:18.676Z,0.00
2018-12-21T01:22:18.653Z,0.00
2018-12-21T01:23:18.629Z,0.00
2018-12-21T01:24:18.605Z,0.00
2018-12-21T01:25:18.585Z,0.00
2018-12-21T01:26:18.561Z,0.00
2018-12-21T01:27:18.535Z,0.00
2018-12-21T01:28:18.513Z,0.00
2018-12-21T01:29:18.491Z,0.00
2018-12-21T01:30:18.467Z,0.00
2018-12-21T01:31:18.441Z,0.00
2018-12-21T01:32:18.422Z,0.00
2018-12-21T01:33:18.393Z,0.00
2018-12-21T01:34:18.372Z,0.00
2018-12-21T01:35:18.349Z,0.00
2018-12-21T01:36:18.325Z,0.00
2018-12-21T01:37:18.306Z,0.00
2018-12-21T01:38:18.279Z,0.00
2018-12-21T01:39:18.269Z,0.00
2018-12-21T01:40:18.240Z,0.00
2018-12-21T01:41:18.209Z,0.00
2018-12-21T01:42:18.185Z,0.00
2018-12-21T01:43:18.171Z,0.00
2018-12-21T01:44:18.140Z,0.00
2018-12-21T01:45:18.114Z,0.00
2018-12-21T01:46:18.105Z,0.00
2018-12-21T01:47:18.070Z,0.00
2018-12-21T01:48:18.045Z,0.00
2018-12-21T01:49:18.022Z,0.00
2018-12-21T01:50:18.001Z,0.00
2018-12-21T01:51:17.983Z,0.00
2018-12-21T01:52:17.953Z,0.00
2018-12-21T01:53:17.932Z,0.00
2018-12-21T01:54:17.910Z,0.00
2018-12-21T01:55:17.886Z,0.00
2018-12-21T01:56:17.862Z,0.00
2018-12-21T01:57:17.843Z,0.00
2018-12-21T01:58:17.814Z,0.00
2018-12-21T01:59:17.793Z,0.00
2018-12-21T02:00:17.773Z,0.00
2018-12-21T02:01:17.746Z,0.00
2018-12-21T02:02:17.720Z,0.00
2018-12-21T02:03:17.695Z,0.00
2018-12-21T02:04:17.687Z,0.00
2018-12-21T02:05:17.654Z,0.00
2018-12-21T02:06:17.634Z,0.00
2018-12-21T02:07:17.608Z,0.00
2018-12-21T02:08:17.582Z,0.00
2018-12-21T02:09:17.559Z,0.00
2018-12-21T02:10:17.533Z,0.00
2018-12-21T02:11:17.517Z,0.00
2018-12-21T02:12:17.526Z,0.00
2018-12-21T02:13:17.468Z,0.00
2018-12-21T02:14:17.441Z,0.00
2018-12-21T02:15:17.420Z,0.00
2018-12-21T02:16:17.397Z,0.00
2018-12-21T02:17:17.380Z,0.00
2018-12-21T02:18:17.358Z,0.00
2018-12-21T02:19:17.327Z,0.00
2018-12-21T02:20:17.305Z,0.00
2018-12-21T02:21:17.288Z,0.00
2018-12-21T02:22:17.262Z,0.00
2018-12-21T02:23:17.235Z,0.00
2018-12-21T02:24:17.211Z,0.00
2018-12-21T02:25:17.187Z,0.00
2018-12-21T02:26:17.165Z,0.00
2018-12-21T02:27:17.143Z,0.00
2018-12-21T02:28:17.121Z,0.00
2018-12-21T02:29:17.097Z,0.00
2018-12-21T02:30:17.090Z,0.00
2018-12-21T02:31:17.050Z,0.00
2018-12-21T02:32:17.026Z,0.00
2018-12-21T02:33:17.002Z,0.00
2018-12-21T02:34:16.980Z,0.00
2018-12-21T02:35:16.960Z,0.00
2018-12-21T02:36:16.931Z,0.00
2018-12-21T02:37:16.910Z,0.00
2018-12-21T02:38:16.894Z,0.00
2018-12-21T02:39:16.865Z,0.00
2018-12-21T02:40:16.841Z,0.00
2018-12-21T02:41:16.820Z,0.00
2018-12-21T02:42:16.792Z,0.00
2018-12-21T02:43:16.773Z,0.00
2018-12-21T02:44:16.747Z,0.00
2018-12-21T02:45:16.723Z,0.00
2018-12-21T02:46:16.703Z,0.00
2018-12-21T02:47:16.678Z,0.00
2018-12-21T02:48:16.653Z,0.00
2018-12-21T02:49:16.628Z,0.00
2018-12-21T02:50:16.608Z,0.00
2018-12-21T02:51:16.589Z,0.00
2018-12-21T02:52:16.561Z,0.00
2018-12-21T02:53:16.540Z,0.00
2018-12-21T02:54:16.516Z,0.00
2018-12-21T02:55:16.490Z,0.00
2018-12-21T02:56:16.469Z,0.00
2018-12-21T02:57:16.445Z,0.00
2018-12-21T02:58:16.429Z,0.00
2018-12-21T02:59:16.399Z,0.00
2018-12-21T03:00:16.382Z,0.00
2018-12-21T03:01:16.356Z,0.00
2018-12-21T03:02:16.328Z,0.00
2018-12-21T03:03:16.313Z,0.00
2018-12-21T03:04:16.287Z,0.00
2018-12-21T03:05:16.260Z,0.00
2018-12-21T03:06:16.242Z,0.00
2018-12-21T03:07:16.215Z,0.00
2018-12-21T03:08:16.193Z,0.00
2018-12-21T03:09:16.178Z,0.00
2018-12-21T03:10:16.148Z,0.00
2018-12-21T03:11:16.119Z,0.00
2018-12-21T03:12:16.099Z,0.00
2018-12-21T03:13:16.072Z,0.00
2018-12-21T03:14:16.050Z,0.00
2018-12-21T03:15:16.027Z,0.00
2018-12-21T03:16:16.004Z,0.00
2018-12-21T03:17:15.989Z,0.00
2018-12-21T03:18:15.967Z,0.00
2018-12-21T03:19:15.934Z,0.00
2018-12-21T03:20:15.919Z,0.00
2018-12-21T03:21:15.892Z,0.00
2018-12-21T03:22:15.870Z,0.00
2018-12-21T03:23:15.847Z,0.00
2018-12-21T03:24:15.821Z,0.00
2018-12-21T03:25:15.798Z,0.00
2018-12-21T03:26:15.774Z,0.00
2018-12-21T03:27:15.751Z,0.00
2018-12-21T03:28:15.730Z,0.00
2018-12-21T03:29:15.708Z,0.00
2018-12-21T03:30:15.687Z,0.00
2018-12-21T03:31:15.663Z,0.00
2018-12-21T03:32:15.649Z,0.00
2018-12-21T03:33:15.616Z,0.00
2018-12-21T03:34:15.593Z,0.00
2018-12-21T03:35:15.567Z,0.00
2018-12-21T03:36:15.554Z,0.00
2018-12-21T03:37:15.530Z,0.00
2018-12-21T03:38:15.497Z,0.00
2018-12-21T03:39:15.476Z,0.00
2018-12-21T03:40:15.454Z,0.00
2018-12-21T03:41:15.429Z,0.00
2018-12-21T03:42:15.410Z,0.00
2018-12-21T03:43:15.383Z,0.00
2018-12-21T03:44:15.360Z,0.00
2018-12-21T03:45:15.336Z,0.00
2018-12-21T03:46:15.315Z,0.00
2018-12-21T03:47:15.292Z,0.00
2018-12-21T03:48:15.280Z,0.00
2018-12-21T03:49:15.249Z,0.00
2018-12-21T03:50:15.222Z,0.00
2018-12-21T03:51:15.200Z,0.00
2018-12-21T03:52:23.992Z,0.00
2018-12-21T03:53:15.151Z,0.00
2018-12-21T03:54:15.129Z,0.00
2018-12-21T03:55:15.108Z,0.00
2018-12-21T03:56:15.081Z,0.00
2018-12-21T03:57:15.064Z,0.00
2018-12-21T03:58:15.043Z,0.00
2018-12-21T03:59:15.015Z,0.00
2018-12-21T04:00:14.998Z,0.00
2018-12-21T04:01:14.965Z,0.00
2018-12-21T04:02:14.944Z,0.00
2018-12-21T04:03:14.923Z,0.00
2018-12-21T04:04:14.899Z,0.00
2018-12-21T04:05:14.873Z,0.00
2018-12-21T04:06:14.852Z,0.00
2018-12-21T04:07:14.831Z,0.00
2018-12-21T04:08:14.805Z,0.00
2018-12-21T04:09:14.784Z,0.00
2018-12-21T04:10:14.766Z,0.00
2018-12-21T04:11:14.735Z,0.00
2018-12-21T04:12:14.714Z,0.00
2018-12-21T04:13:14.694Z,0.00
2018-12-21T04:14:14.666Z,0.00
2018-12-21T04:15:14.641Z,0.00
2018-12-21T04:16:14.623Z,0.00
2018-12-21T04:17:14.593Z,0.00
2018-12-21T04:18:14.575Z,0.00
2018-12-21T04:19:14.551Z,0.00
2018-12-21T04:20:14.531Z,0.00
2018-12-21T04:21:14.503Z,0.00
2018-12-21T04:22:14.479Z,0.00
2018-12-21T04:23:14.456Z,0.00
2018-12-21T04:24:14.435Z,0.00
2018-12-21T04:25:14.410Z,0.00
2018-12-21T04:26:14.389Z,0.00
2018-12-21T04:27:14.364Z,0.00
2018-12-21T04:28:14.343Z,0.00
2018-12-21T04:29:14.318Z,0.00
2018-12-21T04:30:14.294Z,0.00
2018-12-21T04:31:14.274Z,0.00
2018-12-21T04:32:14.254Z,0.00
2018-12-21T04:33:14.235Z,0.00
2018-12-21T04:34:14.202Z,0.00
2018-12-21T04:35:14.178Z,0.00
2018-12-21T04:36:14.156Z,0.00
2018-12-21T04:37:14.154Z,0.00
2018-12-21T04:38:14.111Z,0.00
2018-12-21T04:39:14.088Z,0.00
2018-12-21T04:40:14.065Z,0.00
2018-12-21T04:41:14.039Z,0.00
2018-12-21T04:42:14.020Z,0.00
2018-12-21T04:43:13.992Z,0.00
2018-12-21T04:44:13.972Z,0.00
2018-12-21T04:45:13.945Z,0.00
2018-12-21T04:46:13.931Z,0.00
2018-12-21T04:47:13.902Z,0.00
2018-12-21T04:48:13.972Z,0.00
2018-12-21T04:49:13.864Z,0.00
2018-12-21T04:50:13.830Z,0.00
2018-12-21T04:51:13.808Z,0.00
2018-12-21T04:52:13.787Z,0.00
2018-12-21T04:53:13.765Z,0.00
2018-12-21T04:54:13.739Z,0.00
2018-12-21T04:55:13.715Z,0.00
2018-12-21T04:56:13.694Z,0.00
2018-12-21T04:57:13.669Z,0.00
2018-12-21T04:58:13.652Z,0.00
2018-12-21T04:59:13.623Z,0.00
2018-12-21T05:00:13.601Z,0.00
2018-12-21T05:01:13.580Z,0.00
2018-12-21T05:02:13.555Z,0.00
2018-12-21T05:03:13.530Z,0.00
2018-12-21T05:04:19.889Z,0.00
2018-12-21T05:05:13.488Z,0.00
2018-12-21T05:06:13.462Z,0.00
2018-12-21T05:07:13.480Z,0.00
2018-12-21T05:08:13.416Z,0.00
2018-12-21T05:09:13.392Z,0.00
2018-12-21T05:10:13.367Z,0.00
2018-12-21T05:11:13.347Z,0.00
2018-12-21T05:12:13.323Z,0.00
2018-12-21T05:13:13.304Z,0.00
2018-12-21T05:14:13.278Z,0.00
2018-12-21T05:15:13.257Z,0.00
2018-12-21T05:16:13.233Z,0.00
2018-12-21T05:17:13.208Z,0.00
2018-12-21T05:18:13.182Z,0.00
2018-12-21T05:19:13.166Z,0.00
2018-12-21T05:20:13.141Z,0.00
2018-12-21T05:21:13.117Z,0.00
2018-12-21T05:22:13.091Z,0.00
2018-12-21T05:23:13.069Z,0.00
2018-12-21T05:24:13.047Z,0.00
2018-12-21T05:25:13.026Z,0.00
2018-12-21T05:26:13.009Z,0.00
2018-12-21T05:27:12.976Z,0.00
2018-12-21T05:28:12.954Z,0.00
2018-12-21T05:29:12.930Z,0.00
2018-12-21T05:30:12.916Z,0.00
2018-12-21T05:31:12.886Z,0.00
2018-12-21T05:32:12.904Z,0.00
2018-12-21T05:33:12.842Z,0.00
2018-12-21T05:34:12.819Z,0.00
2018-12-21T05:35:12.799Z,0.00
2018-12-21T05:36:12.771Z,0.00
2018-12-21T05:37:12.747Z,0.00
2018-12-21T05:38:12.722Z,0.00
2018-12-21T05:39:12.704Z,0.00
2018-12-21T05:40:12.675Z,0.00
2018-12-21T05:41:12.656Z,0.00
2018-12-21T05:42:12.633Z,0.00
2018-12-21T05:43:12.608Z,0.00
2018-12-21T05:44:12.585Z,0.00
2018-12-21T05:45:12.562Z,0.00
2018-12-21T05:46:12.538Z,0.00
2018-12-21T05:47:12.517Z,0.00
2018-12-21T05:48:12.493Z,0.00
2018-12-21T05:49:12.470Z,0.00
2018-12-21T05:50:12.449Z,0.00
2018-12-21T05:51:12.423Z,0.00
2018-12-21T05:52:12.400Z,0.00
2018-12-21T05:53:12.378Z,0.00
2018-12-21T05:54:12.354Z,0.00
2018-12-21T05:55:12.330Z,0.00
2018-12-21T05:56:12.307Z,0.00
2018-12-21T05:57:12.284Z,0.00
2018-12-21T05:58:12.260Z,0.00
2018-12-21T05:59:12.238Z,0.00
2018-12-21T06:00:12.215Z,0.00
2018-12-21T06:01:12.240Z,0.00
2018-12-21T06:02:12.171Z,0.00
2018-12-21T06:03:12.146Z,0.00
2018-12-21T06:04:12.128Z,0.00
2018-12-21T06:05:12.160Z,0.00
2018-12-21T06:06:12.076Z,0.00
2018-12-21T06:07:12.053Z,0.00
2018-12-21T06:08:12.032Z,0.00
2018-12-21T06:09:12.010Z,0.00
2018-12-21T06:10:11.987Z,0.00
2018-12-21T06:11:11.960Z,0.00
2018-12-21T06:12:11.940Z,0.00
2018-12-21T06:13:11.922Z,0.00
2018-12-21T06:14:11.892Z,0.00
2018-12-21T06:15:11.873Z,0.00
2018-12-21T06:16:11.846Z,0.00
2018-12-21T06:17:11.825Z,0.00
2018-12-21T06:18:11.801Z,0.00
2018-12-21T06:19:12.332Z,0.00
2018-12-21T06:20:11.755Z,0.00
2018-12-21T06:21:11.730Z,0.00
2018-12-21T06:22:11.709Z,0.00
2018-12-21T06:23:11.686Z,0.00
2018-12-21T06:24:11.664Z,0.00
2018-12-21T06:25:11.648Z,0.00
2018-12-21T06:26:11.616Z,0.00
2018-12-21T06:27:11.594Z,0.00
2018-12-21T06:28:11.570Z,0.00
2018-12-21T06:29:11.547Z,0.00
2018-12-21T06:30:11.523Z,0.00
2018-12-21T06:31:11.501Z,0.00
2018-12-21T06:32:11.481Z,0.00
2018-12-21T06:33:11.458Z,0.00
2018-12-21T06:34:11.433Z,0.00
2018-12-21T06:35:11.411Z,0.00
2018-12-21T06:36:11.397Z,0.00
2018-12-21T06:37:11.372Z,0.00
2018-12-21T06:38:11.344Z,0.00
2018-12-21T06:39:11.323Z,0.00
2018-12-21T06:40:11.297Z,0.00
2018-12-21T06:41:11.271Z,0.00
2018-12-21T06:42:11.249Z,0.00
2018-12-21T06:43:11.230Z,0.00
2018-12-21T06:44:11.203Z,0.00
2018-12-21T06:45:11.178Z,0.00
2018-12-21T06:46:14.228Z,0.00
2018-12-21T06:47:11.140Z,0.00
2018-12-21T06:48:11.111Z,0.00
2018-12-21T06:49:11.089Z,0.00
2018-12-21T06:50:11.064Z,0.00
2018-12-21T06:51:11.049Z,0.00
2018-12-21T06:52:11.019Z,0.00
2018-12-21T06:53:17.863Z,0.00
2018-12-21T06:54:10.974Z,0.00
2018-12-21T06:55:10.958Z,0.00
2018-12-21T06:56:10.931Z,0.00
2018-12-21T06:57:10.906Z,0.00
2018-12-21T06:58:10.883Z,0.00
2018-12-21T06:59:10.859Z,0.00
2018-12-21T07:00:10.837Z,0.00
2018-12-21T07:01:10.812Z,0.00
2018-12-21T07:02:10.793Z,0.00
2018-12-21T07:03:17.063Z,0.00
2018-12-21T07:04:10.752Z,0.00
2018-12-21T07:05:10.721Z,0.00
2018-12-21T07:06:10.708Z,0.00
2018-12-21T07:07:10.680Z,0.00
2018-12-21T07:08:10.653Z,0.00
2018-12-21T07:09:10.627Z,0.00
2018-12-21T07:10:10.605Z,0.00
2018-12-21T07:11:10.588Z,0.00
2018-12-21T07:12:10.656Z,0.00
2018-12-21T07:13:10.541Z,0.00
2018-12-21T07:14:10.515Z,0.00
2018-12-21T07:15:10.493Z,0.00
2018-12-21T07:16:10.484Z,0.00
2018-12-21T07:17:10.445Z,0.00
2018-12-21T07:18:10.424Z,0.00
2018-12-21T07:19:10.403Z,0.00
2018-12-21T07:20:10.377Z,0.00
2018-12-21T07:21:10.361Z,0.00
2018-12-21T07:22:10.329Z,0.00
2018-12-21T07:23:10.306Z,0.00
2018-12-21T07:24:10.282Z,0.00
2018-12-21T07:25:10.261Z,0.00
2018-12-21T07:26:10.250Z,0.00
2018-12-21T07:27:10.213Z,0.00
2018-12-21T07:28:10.191Z,0.00
2018-12-21T07:29:10.165Z,0.00
2018-12-21T07:30:10.144Z,0.00
2018-12-21T07:31:10.128Z,0.00
2018-12-21T07:32:10.107Z,0.00
2018-12-21T07:33:10.074Z,4.00
2018-12-21T07:34:10.054Z,0.00
2018-12-21T07:35:10.030Z,0.00
2018-12-21T07:36:10.013Z,0.00
2018-12-21T07:37:09.983Z,4.00
2018-12-21T07:38:09.959Z,0.00
2018-12-21T07:39:09.938Z,4.00
2018-12-21T07:40:09.913Z,4.00
2018-12-21T07:41:09.894Z,4.00
2018-12-21T07:42:09.867Z,4.00
2018-12-21T07:43:09.845Z,4.00
2018-12-21T07:44:09.827Z,4.00
2018-12-21T07:45:09.797Z,0.00
2018-12-21T07:46:09.776Z,0.00
2018-12-21T07:47:09.754Z,4.00
2018-12-21T07:48:09.729Z,4.00
2018-12-21T07:49:09.705Z,0.00
2018-12-21T07:50:09.691Z,4.00
2018-12-21T07:51:09.667Z,4.00
2018-12-21T07:52:09.677Z,0.00
2018-12-21T07:53:09.613Z,4.00
2018-12-21T07:54:09.593Z,4.00
2018-12-21T07:55:09.573Z,4.00
2018-12-21T07:56:09.545Z,4.00
2018-12-21T07:57:09.529Z,4.00
2018-12-21T07:58:09.503Z,8.00
2018-12-21T07:59:09.478Z,4.00
2018-12-21T08:00:09.459Z,4.00
2018-12-21T08:01:09.430Z,4.00
2018-12-21T08:02:09.409Z,8.00
2018-12-21T08:03:09.384Z,4.00
2018-12-21T08:04:09.362Z,8.00
2018-12-21T08:05:09.339Z,8.00
2018-12-21T08:06:09.323Z,12.00
2018-12-21T08:07:09.296Z,12.00
2018-12-21T08:08:09.269Z,12.00
2018-12-21T08:09:09.254Z,8.00
2018-12-21T08:10:09.222Z,8.00
2018-12-21T08:11:09.203Z,8.00
2018-12-21T08:12:09.178Z,8.00
2018-12-21T08:13:09.153Z,12.00
2018-12-21T08:14:09.236Z,8.00
2018-12-21T08:15:09.107Z,8.00
2018-12-21T08:16:09.083Z,8.00
2018-12-21T08:17:09.061Z,12.00
2018-12-21T08:18:09.039Z,12.00
2018-12-21T08:19:09.025Z,16.00
2018-12-21T08:20:08.993Z,12.00
2018-12-21T08:21:08.970Z,12.00
2018-12-21T08:22:08.947Z,16.00
2018-12-21T08:23:08.929Z,16.00
2018-12-21T08:24:08.901Z,12.00
2018-12-21T08:25:08.877Z,12.00
2018-12-21T08:26:08.854Z,12.00
2018-12-21T08:27:08.831Z,12.00
2018-12-21T08:28:08.822Z,12.00
2018-12-21T08:29:08.783Z,12.00
2018-12-21T08:30:08.761Z,16.00
2018-12-21T08:31:08.740Z,16.00
2018-12-21T08:32:08.718Z,16.00
2018-12-21T08:33:08.702Z,20.00
2018-12-21T08:34:08.670Z,20.00
2018-12-21T08:35:08.652Z,24.00
2018-12-21T08:36:08.630Z,20.00
2018-12-21T08:37:08.605Z,20.00
2018-12-21T08:38:08.578Z,20.00
2018-12-21T08:39:08.556Z,20.00
2018-12-21T08:40:08.533Z,16.00
2018-12-21T08:41:08.510Z,16.00
2018-12-21T08:42:08.493Z,16.00
2018-12-21T08:43:08.464Z,20.00
2018-12-21T08:44:08.443Z,20.00
2018-12-21T08:45:08.420Z,20.00
2018-12-21T08:46:08.403Z,16.00
2018-12-21T08:47:08.373Z,20.00
2018-12-21T08:48:08.351Z,16.00
2018-12-21T08:49:08.331Z,16.00
2018-12-21T08:50:08.310Z,16.00
2018-12-21T08:51:08.290Z,16.00
2018-12-21T08:52:08.262Z,16.00
2018-12-21T08:53:08.239Z,20.00
2018-12-21T08:54:08.220Z,16.00
2018-12-21T08:55:08.195Z,20.00
2018-12-21T08:56:08.169Z,20.00
2018-12-21T08:57:08.162Z,16.00
2018-12-21T08:58:08.130Z,16.00
2018-12-21T08:59:08.109Z,20.00
2018-12-21T09:00:08.085Z,16.00
2018-12-21T09:01:08.057Z,16.00
2018-12-21T09:02:08.032Z,20.00
2018-12-21T09:03:08.012Z,20.00
2018-12-21T09:04:07.992Z,20.00
2018-12-21T09:05:07.964Z,20.00
2018-12-21T09:06:07.942Z,20.00
2018-12-21T09:07:07.920Z,20.00
2018-12-21T09:08:07.892Z,20.00
2018-12-21T09:09:07.869Z,24.00
2018-12-21T09:10:07.849Z,24.00
2018-12-21T09:11:07.845Z,28.00
2018-12-21T09:12:07.802Z,32.00
2018-12-21T09:13:07.787Z,36.00
2018-12-21T09:14:07.765Z,36.00
2018-12-21T09:15:07.734Z,40.00
2018-12-21T09:16:07.729Z,40.00
2018-12-21T09:17:07.695Z,44.00
2018-12-21T09:18:07.666Z,40.00
2018-12-21T09:19:07.642Z,36.00
2018-12-21T09:20:07.629Z,32.00
2018-12-21T09:21:07.612Z,28.00
2018-12-21T09:22:07.574Z,28.00
2018-12-21T09:23:07.559Z,36.00
2018-12-21T09:24:07.530Z,32.00
2018-12-21T09:25:07.505Z,24.00
2018-12-21T09:26:07.488Z,24.00
2018-12-21T09:27:07.464Z,24.00
2018-12-21T09:28:07.470Z,20.00
2018-12-21T09:29:07.414Z,16.00
2018-12-21T09:30:07.390Z,16.00
2018-12-21T09:31:07.372Z,16.00
2018-12-21T09:32:07.346Z,12.00
2018-12-21T09:33:07.326Z,12.00
2018-12-21T09:34:07.298Z,16.00
2018-12-21T09:35:07.277Z,20.00
2018-12-21T09:36:07.254Z,20.00
2018-12-21T09:37:07.233Z,28.00
2018-12-21T09:38:07.209Z,40.00
2018-12-21T09:39:07.187Z,56.00
2018-12-21T09:40:07.168Z,68.00
2018-12-21T09:41:07.147Z,80.00
2018-12-21T09:42:07.117Z,80.00
2018-12-21T09:43:07.095Z,72.00
2018-12-21T09:44:07.088Z,76.00
2018-12-21T09:45:07.047Z,76.00
2018-12-21T09:46:07.027Z,72.00
2018-12-21T09:47:07.003Z,72.00
2018-12-21T09:48:06.992Z,64.00
2018-12-21T09:49:06.958Z,60.00
2018-12-21T09:50:06.940Z,64.00
2018-12-21T09:51:06.912Z,60.00
2018-12-21T09:52:06.899Z,64.00
2018-12-21T09:53:06.865Z,64.00
2018-12-21T09:54:10.025Z,68.00
2018-12-21T09:55:06.826Z,64.00
2018-12-21T09:56:06.797Z,68.00
2018-12-21T09:57:06.774Z,72.00
2018-12-21T09:58:06.755Z,68.00
2018-12-21T09:59:08.039Z,76.00
2018-12-21T10:00:06.709Z,80.00
2018-12-21T10:01:06.684Z,68.00
2018-12-21T10:02:06.661Z,76.00
2018-12-21T10:03:06.639Z,80.00
2018-12-21T10:04:06.615Z,92.00
2018-12-21T10:05:06.598Z,96.00
2018-12-21T10:06:06.573Z,88.00
2018-12-21T10:07:06.547Z,80.00
2018-12-21T10:08:06.525Z,72.00
2018-12-21T10:09:06.506Z,68.00
2018-12-21T10:10:06.489Z,64.00
2018-12-21T10:11:06.457Z,64.00
2018-12-21T10:12:06.446Z,68.00
2018-12-21T10:13:08.477Z,72.00
2018-12-21T10:14:06.389Z,68.00
2018-12-21T10:15:06.368Z,56.00
2018-12-21T10:16:06.344Z,68.00
2018-12-21T10:17:06.320Z,72.00
2018-12-21T10:18:06.298Z,68.00
2018-12-21T10:19:06.287Z,76.00
2018-12-21T10:20:06.254Z,64.00
2018-12-21T10:21:06.231Z,68.00
2018-12-21T10:22:06.213Z,76.00
2018-12-21T10:23:06.200Z,72.00
2018-12-21T10:24:06.174Z,80.00
2018-12-21T10:25:06.143Z,64.00
2018-12-21T10:26:06.122Z,68.00
2018-12-21T10:27:06.095Z,76.00
2018-12-21T10:28:06.072Z,88.00
2018-12-21T10:29:06.050Z,92.00
2018-12-21T10:30:06.026Z,76.00
2018-12-21T10:31:06.016Z,72.00
2018-12-21T10:32:05.982Z,68.00
2018-12-21T10:33:05.959Z,76.00
2018-12-21T10:34:05.944Z,72.00
2018-12-21T10:35:05.919Z,64.00
2018-12-21T10:36:05.896Z,84.00
2018-12-21T10:37:05.868Z,80.00
2018-12-21T10:38:05.855Z,84.00
2018-12-21T10:39:05.832Z,60.00
2018-12-21T10:40:05.803Z,60.00
2018-12-21T10:41:05.778Z,60.00
2018-12-21T10:42:05.766Z,56.00
2018-12-21T10:43:05.734Z,68.00
2018-12-21T10:44:05.720Z,60.00
2018-12-21T10:45:05.688Z,48.00
2018-12-21T10:46:05.669Z,44.00
2018-12-21T10:47:05.643Z,44.00
2018-12-21T10:48:05.623Z,56.00
2018-12-21T10:49:05.609Z,72.00
2018-12-21T10:50:05.576Z,68.00
2018-12-21T10:51:05.553Z,56.00
2018-12-21T10:52:05.540Z,60.00
2018-12-21T10:53:05.505Z,52.00
2018-12-21T10:54:05.487Z,52.00
2018-12-21T10:55:05.462Z,64.00
2018-12-21T10:56:05.438Z,64.00
2018-12-21T10:57:05.424Z,88.00
2018-12-21T10:58:05.405Z,88.00
2018-12-21T10:59:05.368Z,92.00
2018-12-21T11:00:05.349Z,96.00
2018-12-21T11:01:05.328Z,88.00
2018-12-21T11:02:05.306Z,60.00
2018-12-21T11:03:05.285Z,52.00
2018-12-21T11:04:05.269Z,44.00
2018-12-21T11:05:05.234Z,76.00
2018-12-21T11:06:05.219Z,80.00
2018-12-21T11:07:05.191Z,84.00
2018-12-21T11:08:05.174Z,120.00
2018-12-21T11:09:05.152Z,124.00
2018-12-21T11:10:05.122Z,136.00
2018-12-21T11:11:05.101Z,132.00
2018-12-21T11:12:05.081Z,140.00
2018-12-21T11:13:05.052Z,120.00
2018-12-21T11:14:05.037Z,88.00
2018-12-21T11:15:05.029Z,60.00
2018-12-21T11:16:04.987Z,48.00
2018-12-21T11:17:04.964Z,44.00
2018-12-21T11:18:04.940Z,48.00
2018-12-21T11:19:04.919Z,64.00
2018-12-21T11:20:04.902Z,72.00
2018-12-21T11:21:04.874Z,88.00
2018-12-21T11:22:04.850Z,96.00
2018-12-21T11:23:04.831Z,116.00
2018-12-21T11:24:04.807Z,140.00
2018-12-21T11:25:04.798Z,132.00
2018-12-21T11:26:04.768Z,120.00
2018-12-21T11:27:04.752Z,112.00
2018-12-21T11:28:04.718Z,96.00
2018-12-21T11:29:04.704Z,92.00
2018-12-21T11:30:04.678Z,100.00
2018-12-21T11:31:04.653Z,104.00
2018-12-21T11:32:04.630Z,100.00
2018-12-21T11:33:04.632Z,92.00
2018-12-21T11:34:04.594Z,84.00
2018-12-21T11:35:04.568Z,80.00
2018-12-21T11:36:04.541Z,88.00
2018-12-21T11:37:04.521Z,96.00
2018-12-21T11:38:04.498Z,112.00
2018-12-21T11:39:04.474Z,104.00
2018-12-21T11:40:04.467Z,104.00
2018-12-21T11:41:04.426Z,100.00
2018-12-21T11:42:04.405Z,96.00
2018-12-21T11:43:04.379Z,96.00
2018-12-21T11:44:04.359Z,104.00
2018-12-21T11:45:04.337Z,88.00
2018-12-21T11:46:04.314Z,108.00
2018-12-21T11:47:04.301Z,96.00
2018-12-21T11:48:04.271Z,84.00
2018-12-21T11:49:04.259Z,80.00
2018-12-21T11:50:04.230Z,80.00
2018-12-21T11:51:04.207Z,80.00
2018-12-21T11:52:04.179Z,80.00
2018-12-21T11:53:04.157Z,80.00
2018-12-21T11:54:04.139Z,96.00
2018-12-21T11:55:04.112Z,80.00
2018-12-21T11:56:04.098Z,64.00
2018-12-21T11:57:04.070Z,76.00
2018-12-21T11:58:04.053Z,84.00
2018-12-21T11:59:04.027Z,92.00
2018-12-21T12:00:04.001Z,88.00
2018-12-21T12:01:03.979Z,88.00
2018-12-21T12:02:03.962Z,84.00
2018-12-21T12:03:03.935Z,84.00
2018-12-21T12:04:03.914Z,76.00
2018-12-21T12:05:03.900Z,60.00
2018-12-21T12:06:03.883Z,48.00
2018-12-21T12:07:03.848Z,48.00
2018-12-21T12:08:03.827Z,60.00
2018-12-21T12:09:06.382Z,56.00
2018-12-21T12:10:03.779Z,56.00
2018-12-21T12:11:03.763Z,64.00
2018-12-21T12:12:03.745Z,68.00
2018-12-21T12:13:03.716Z,72.00
2018-12-21T12:14:03.703Z,76.00
2018-12-21T12:15:03.669Z,84.00
2018-12-21T12:16:03.658Z,100.00
2018-12-21T12:17:03.629Z,92.00
2018-12-21T12:18:03.602Z,112.00
2018-12-21T12:19:03.593Z,120.00
2018-12-21T12:20:03.563Z,112.00
2018-12-21T12:21:03.544Z,104.00
2018-12-21T12:22:03.527Z,88.00
2018-12-21T12:23:03.496Z,92.00
2018-12-21T12:24:03.471Z,92.00
2018-12-21T12:25:03.452Z,84.00
2018-12-21T12:26:03.431Z,112.00
2018-12-21T12:27:03.408Z,120.00
2018-12-21T12:28:03.385Z,132.00
2018-12-21T12:29:03.380Z,132.00
2018-12-21T12:30:03.340Z,128.00
2018-12-21T12:31:03.319Z,128.00
2018-12-21T12:32:03.295Z,112.00
2018-12-21T12:33:03.292Z,108.00
2018-12-21T12:34:03.253Z,108.00
2018-12-21T12:35:03.234Z,116.00
2018-12-21T12:36:03.209Z,100.00
2018-12-21T12:37:03.192Z,100.00
2018-12-21T12:38:03.260Z,84.00
2018-12-21T12:39:03.143Z,76.00
2018-12-21T12:40:03.119Z,84.00
2018-12-21T12:41:06.759Z,80.00
2018-12-21T12:42:03.820Z,88.00
2018-12-21T12:43:03.057Z,92.00
2018-12-21T12:44:03.032Z,100.00
2018-12-21T12:45:03.010Z,108.00
2018-12-21T12:46:02.994Z,104.00
2018-12-21T12:47:02.964Z,100.00
2018-12-21T12:48:02.948Z,108.00
2018-12-21T12:49:02.925Z,108.00
2018-12-21T12:50:02.904Z,100.00
2018-12-21T12:51:02.884Z,88.00
2018-12-21T12:52:02.864Z,76.00
2018-12-21T12:53:02.837Z,84.00
2018-12-21T12:54:02.813Z,88.00
2018-12-21T12:55:03.333Z,96.00
2018-12-21T12:56:05.143Z,92.00
2018-12-21T12:57:02.757Z,88.00
2018-12-21T12:58:02.725Z,100.00
2018-12-21T12:59:02.721Z,68.00
2018-12-21T13:00:02.693Z,68.00
2018-12-21T13:01:02.666Z,80.00
2018-12-21T13:02:02.647Z,72.00
2018-12-21T13:03:02.623Z,68.00
2018-12-21T13:04:02.597Z,76.00
2018-12-21T13:05:02.582Z,80.00
2018-12-21T13:06:02.554Z,96.00
2018-12-21T13:07:02.537Z,108.00